Terminal Aerodrome Forecast
Issued by NWS Burlington, VT

Current Version | Previous Version | Text Only | Print | Product List | Glossary On
Versions: 1 2 3 4 5 6 7 8 9 10 11 12 13 14 15 16 17 18 19
000
FTUS41 KBTV 210532
TAFBTV
TAF
KBTV 210532Z 2106/2206 VRB04KT P6SM OVC030
     FM210800 18008KT P6SM SCT110
     FM211100 18012KT P6SM FEW200
     FM211500 18017G25KT P6SM FEW250
     FM212100 18015KT P6SM FEW200=

USA.gov is the U.S. government's official web portal to all federal, state and local government web resources and services.